C75

Marshall County Airport

Lacon, Illinois, USA
METAR KC75 172315Z AUTO 02004KT 2SM -SN OVC007 00/00 A3029 RMK AO2 P0001 T00001003
Observed Flight Rules
Nov-17 @ 23:15 UTC (21 minutes ago) Instrument Flight Rules
Wind Visibility Clouds Conditions
20° at 4 knots 2 miles
  • Overcast at 700' AGL
  • Light Snow
Temperatures Readings Precipitation
Current 0°C / 32°F
Dewpoint -0°C / 32°F
Humidity 100%
Altimeter 30.29" Hg
Pressure 1026 hPa
Elevation 173
Current Rain 0.01
METAR KC75 172315Z AUTO 02004KT 2SM -SN OVC007 00/00 A3029 RMK AO2 P0001 T00001003
Observed Flight Rules
Nov-17 @ 23:15 UTC
(21 minutes ago)
IFR
Wind Visibility
20° at 4 knots 2 miles
Clouds
  • Overcast at 700' AGL
Conditions
  • Light Snow
Temperature Dewpoint
0°C / 32°F -0°C / 32°F
Humidity Altimeter Pressure
100% 30.29" Hg 1026 hPa
Current Rain
0.01